Johnsburg, IL

4:10 AM CDT on May 06, 2015 (GMT -0500)
Waukegan Regional | | Change Station
CLOSE
Current Station
Airport
Location: Waukegan,
Elevation: 728 ft
Nearby Weather Stations
Active Advisory: Special Statement

Elev 728 ft 42.42 °N, 87.87 °W | Updated 15 minutes ago

Overcast
Overcast
45 °F
Feels Like 44 °F
N
4
Wind Variable Wind from East

Today
High -- | Low -- °F
--% Chance of Precip.
Yesterday
High -- | Low -- °F
Precip. -- in
5:42 AM 7:57 PM
Waning Gibbous, 95% visible
Pressure 30.21 in
Visibility 6.0 miles
Clouds Overcast 300 ft
Windchill 44 °F
Dew Point 44 °F
Humidity 97%
Rainfall 0.00 in
Snow Depth Not available.
UV 0 out of 12
Pollen .60 out of 12
Air Quality Not available.
Flu Activity Local Activity
METAR KUGN 060855Z AUTO 10003KT 6SM BR OVC003 07/07 A3019 RMK AO2 SLP228 T00720067 56012

More Conditions Fewer Conditions

Pressure 30.21 in
Visibility 6.0 miles
Clouds Overcast 300 ft
Windchill 44 °F
Dew Point 44 °F
Humidity 97%
Rainfall 0.00 in
Snow Depth Not available.
UV 0 out of 12
Pollen .60 out of 12
Air Quality Not available.
Flu Activity Local Activity
METAR KUGN 060855Z AUTO 10003KT 6SM BR OVC003 07/07 A3019 RMK AO2 SLP228 T00720067 56012

More Conditions Fewer Conditions

10-Day Weather Forecast

Almanac

Astronomy

May. 06, 2015 Rise Set
Actual Time
Civil Twilight
Nautical Twilight
Astronomical Twilight
Moon
Length of Visible Light
Length of Day
Tomorrow will be .
, % of the Moon is Illuminated

Today's Extremes

State Highs State Lows

Community

WunderPhotos

Upload Photos

1,818,858 photos uploaded!

WunderBlogs® & News

Nearby

Air Quality

  Air Quality AQ Index Pollutant
Not available.

Snow Depth

Station Depth Elevation

Earthquake Activity

City Distance Mag. Time & Date
Minimum magnitude displayed is 2.5.

Coastal Water Temperatures

Place Temperature

Stations

Nearby Weather Stations

Station Location Temp. Windchill Dew Point Humidity Wind Precip. Elev Updated Type
                   
Special Statement
Statement as of 1:22 AM CDT on May 06, 2015

... Areas of dense fog through daybreak...

Fog is being observed across northern Illinois and Northwest
Indiana early this morning with areas of dense fog reported.
Visibility down to a quarter mile... or even less in some
spots... will continue through daybreak and possibly as late as 9
or 10 am. Exercise caution if traveling... and be prepared for
rapid changes in visibility.


Mtf

122 am CDT Wed may 6 2015

... Areas of dense fog through daybreak...

Fog is being observed across northern Illinois and Northwest
Indiana early this morning with areas of dense fog reported.
Visibility down to a quarter mile... or even less in some
spots... will continue through daybreak and possibly as late as 9
or 10 am. Exercise caution if traveling... and be prepared for
rapid changes in visibility.


Mtf